Time;durP1;ratioP1;P1;durP2;ratioP2;P2;SDS_P1;SDS_P2;PMS_P1;PMS_P2;Temp;Humidity;BMP_temperature;BMP_pressure;BME280_temperature;BME280_humidity;BME280_pressure;Samples;Min_cycle;Max_cycle;Signal;HPM_P1;HPM_P2
2020/12/30 00:00:38;;;;;;;2.30;0.30;;;4.70;58.20;;;;;;5025906;28;79808;-69
2020/12/30 00:03:04;;;;;;;2.03;0.40;;;4.70;58.00;;;;;;5026052;28;80223;-69
2020/12/30 00:05:29;;;;;;;1.38;0.30;;;4.60;57.90;;;;;;5025788;28;80728;-68
2020/12/30 00:07:55;;;;;;;3.53;0.38;;;4.60;57.90;;;;;;5025753;28;81481;-68
2020/12/30 00:10:23;;;;;;;1.58;0.55;;;4.60;58.00;;;;;;5025571;28;80865;-69
2020/12/30 00:12:49;;;;;;;3.80;0.60;;;4.60;58.00;;;;;;5026069;28;80558;-68
2020/12/30 00:15:16;;;;;;;2.97;0.20;;;4.70;58.00;;;;;;5007441;28;82880;-69
2020/12/30 00:17:42;;;;;;;0.90;0.47;;;4.60;58.00;;;;;;5025746;28;80440;-70
2020/12/30 00:20:13;;;;;;;2.38;0.22;;;4.60;58.00;;;;;;5029657;28;81063;-68
2020/12/30 00:22:39;;;;;;;1.75;0.20;;;4.60;58.00;;;;;;5029487;28;80259;-69
2020/12/30 00:25:06;;;;;;;1.27;0.20;;;4.60;57.70;;;;;;5029421;28;80651;-69
2020/12/30 00:27:33;;;;;;;1.80;0.30;;;4.60;57.60;;;;;;5029186;28;80802;-70
2020/12/30 00:29:59;;;;;;;3.92;1.23;;;4.60;57.60;;;;;;5029204;28;80811;-67
2020/12/30 00:32:25;;;;;;;4.13;0.68;;;4.60;57.60;;;;;;5029158;28;80183;-68
2020/12/30 00:34:51;;;;;;;3.10;0.65;;;4.60;57.90;;;;;;5029054;28;80878;-69
2020/12/30 00:37:17;;;;;;;1.08;0.20;;;4.50;58.00;;;;;;5011146;28;81671;-69
2020/12/30 00:39:42;;;;;;;1.70;0.20;;;4.50;57.90;;;;;;5010011;28;82528;-69
2020/12/30 00:42:08;;;;;;;1.48;0.20;;;4.60;57.60;;;;;;5010336;28;80039;-70
2020/12/30 00:44:34;;;;;;;0.57;0.20;;;4.60;57.00;;;;;;5029585;28;81147;-70
2020/12/30 00:47:00;;;;;;;1.08;0.40;;;4.60;56.80;;;;;;5028635;28;80306;-70
2020/12/30 00:49:29;;;;;;;1.88;0.35;;;4.60;56.80;;;;;;5028987;28;79768;-71
2020/12/30 00:51:56;;;;;;;1.90;0.30;;;4.60;56.90;;;;;;5009234;28;80508;-70
2020/12/30 00:54:24;;;;;;;2.40;0.25;;;4.60;56.60;;;;;;5029035;28;80482;-68
2020/12/30 00:56:51;;;;;;;2.13;0.10;;;4.60;56.50;;;;;;5010871;28;79839;-69
2020/12/30 00:59:18;;;;;;;3.63;0.30;;;4.70;56.50;;;;;;5028346;28;80595;-70
2020/12/30 01:01:50;;;;;;;1.17;0.10;;;4.70;56.50;;;;;;5028829;28;80850;-68
2020/12/30 01:04:17;;;;;;;2.83;0.20;;;4.70;56.60;;;;;;5028895;28;79881;-70
2020/12/30 01:06:51;;;;;;;2.00;0.20;;;4.70;56.60;;;;;;5028832;28;79856;-68
2020/12/30 01:09:17;;;;;;;1.10;0.30;;;4.60;56.50;;;;;;5023942;28;81444;-70
2020/12/30 01:11:43;;;;;;;0.93;0.30;;;4.60;56.70;;;;;;5009856;28;82525;-69
2020/12/30 01:14:09;;;;;;;1.70;0.60;;;4.60;56.50;;;;;;5028856;28;80652;-69
2020/12/30 01:16:34;;;;;;;2.90;0.47;;;4.60;56.40;;;;;;5028492;28;80223;-68
2020/12/30 01:19:00;;;;;;;1.17;0.17;;;4.50;56.00;;;;;;5027942;28;81113;-68
2020/12/30 01:21:26;;;;;;;3.50;0.30;;;4.50;55.90;;;;;;5028776;28;79980;-69
2020/12/30 01:23:52;;;;;;;3.38;0.30;;;4.60;55.70;;;;;;5028337;28;81126;-68
2020/12/30 01:26:17;;;;;;;2.80;0.20;;;4.60;55.50;;;;;;5028413;28;80195;-69
2020/12/30 01:28:43;;;;;;;0.75;0.30;;;4.60;55.70;;;;;;5010116;28;83906;-67
2020/12/30 01:31:09;;;;;;;1.10;0.10;;;4.60;55.80;;;;;;5027109;28;80434;-67
2020/12/30 01:33:35;;;;;;;2.10;0.17;;;4.50;55.80;;;;;;5028224;28;80389;-70
2020/12/30 01:36:00;;;;;;;2.42;0.17;;;4.50;55.80;;;;;;5028223;28;80236;-67
2020/12/30 01:38:26;;;;;;;1.75;0.20;;;4.50;55.80;;;;;;5009223;28;81822;-68
2020/12/30 01:40:55;;;;;;;2.17;0.38;;;4.50;55.70;;;;;;5028043;28;80206;-68
2020/12/30 01:43:21;;;;;;;1.58;0.20;;;4.50;55.50;;;;;;5009667;28;80744;-70
2020/12/30 01:45:52;;;;;;;2.47;0.30;;;4.50;55.40;;;;;;5028336;28;79773;-68
2020/12/30 01:48:21;;;;;;;1.05;0.20;;;4.50;55.40;;;;;;5027924;28;80636;-68
2020/12/30 01:50:47;;;;;;;1.30;0.10;;;4.50;55.40;;;;;;5028005;28;80366;-70
2020/12/30 01:53:14;;;;;;;2.50;0.20;;;4.50;55.40;;;;;;5028084;28;80794;-69
2020/12/30 01:55:41;;;;;;;1.23;0.20;;;4.50;55.30;;;;;;5027961;28;80520;-70
2020/12/30 01:58:08;;;;;;;1.08;0.20;;;4.60;55.40;;;;;;5027302;28;80318;-69
2020/12/30 02:00:35;;;;;;;1.48;0.20;;;4.50;55.30;;;;;;5027789;28;80685;-68
2020/12/30 02:03:03;;;;;;;2.13;0.30;;;4.50;55.40;;;;;;5027228;28;79731;-70
2020/12/30 02:05:36;;;;;;;1.85;0.60;;;4.50;55.60;;;;;;5009476;28;80243;-70
2020/12/30 02:08:05;;;;;;;1.05;0.20;;;4.50;55.80;;;;;;5027900;28;80903;-70
2020/12/30 02:10:32;;;;;;;0.98;0.10;;;4.50;56.00;;;;;;5027976;28;79881;-71
2020/12/30 02:12:58;;;;;;;2.70;0.35;;;4.40;56.20;;;;;;5027570;28;80606;-70
2020/12/30 02:15:29;;;;;;;0.90;0.22;;;4.40;56.40;;;;;;5028093;28;80742;-70
2020/12/30 02:17:56;;;;;;;2.45;0.30;;;4.40;56.50;;;;;;5026826;28;80547;-70
2020/12/30 02:20:22;;;;;;;1.23;0.20;;;4.40;56.70;;;;;;5027655;28;80764;-71
2020/12/30 02:23:08;;;;;;;2.60;0.30;;;4.40;56.90;;;;;;5008951;28;83433;-71
2020/12/30 02:25:34;;;;;;;2.47;0.22;;;4.40;56.90;;;;;;5027372;28;81510;-70
2020/12/30 02:28:00;;;;;;;0.73;0.20;;;4.30;57.10;;;;;;5027413;28;80516;-70
2020/12/30 02:30:26;;;;;;;2.63;0.20;;;4.20;57.20;;;;;;5027731;28;80131;-71
2020/12/30 02:32:52;;;;;;;1.08;0.17;;;4.30;57.20;;;;;;5027178;28;80396;-70
2020/12/30 02:35:25;;;;;;;0.93;0.20;;;4.20;57.20;;;;;;5027093;28;79972;-71
2020/12/30 02:37:51;;;;;;;2.90;0.30;;;4.20;57.40;;;;;;5027085;28;81967;-70
2020/12/30 02:40:18;;;;;;;2.10;0.63;;;4.20;57.40;;;;;;5026576;28;81446;-70
2020/12/30 02:42:44;;;;;;;2.28;0.98;;;4.20;57.60;;;;;;5027338;28;80515;-71
2020/12/30 02:45:10;;;;;;;1.67;0.28;;;4.10;57.50;;;;;;5008785;28;83295;-71
2020/12/30 02:47:36;;;;;;;0.85;0.30;;;4.20;57.60;;;;;;5026821;28;80964;-70
2020/12/30 02:50:04;;;;;;;1.83;0.32;;;4.20;57.40;;;;;;5026766;28;81728;-70
2020/12/30 02:52:30;;;;;;;4.97;0.57;;;4.20;57.40;;;;;;5008621;28;82246;-70
2020/12/30 02:54:55;;;;;;;0.93;0.20;;;4.20;57.30;;;;;;5009109;28;82089;-70
2020/12/30 02:57:21;;;;;;;2.35;0.52;;;4.20;57.50;;;;;;5026500;28;80647;-67
2020/12/30 02:59:47;;;;;;;1.17;0.32;;;4.10;57.50;;;;;;5008337;28;83069;-69
2020/12/30 03:02:13;;;;;;;3.17;0.35;;;4.20;57.60;;;;;;5008310;28;83439;-69
2020/12/30 03:04:39;;;;;;;1.58;0.15;;;4.10;57.80;;;;;;5008443;28;82637;-70
2020/12/30 03:07:04;;;;;;;1.05;0.10;;;4.10;58.00;;;;;;5008085;28;82538;-70
2020/12/30 03:09:30;;;;;;;1.98;0.25;;;4.10;58.10;;;;;;5026807;28;80139;-69
2020/12/30 03:11:56;;;;;;;0.82;0.28;;;4.10;58.20;;;;;;5026785;28;80665;-70
2020/12/30 03:14:22;;;;;;;4.30;0.65;;;4.10;58.20;;;;;;5026687;28;80383;-70
2020/12/30 03:16:48;;;;;;;1.92;0.32;;;4.10;58.30;;;;;;5026359;28;82020;-70
2020/12/30 03:19:14;;;;;;;2.92;0.20;;;4.00;58.40;;;;;;5026548;28;80482;-69
2020/12/30 03:21:39;;;;;;;1.95;0.10;;;4.00;58.50;;;;;;5026543;28;80772;-69
2020/12/30 03:24:05;;;;;;;1.60;0.17;;;4.00;58.80;;;;;;5008369;28;83030;-70
2020/12/30 03:26:33;;;;;;;2.75;0.75;;;4.00;58.80;;;;;;5025943;28;81822;-69
2020/12/30 03:29:03;;;;;;;1.20;0.32;;;3.90;58.90;;;;;;5009167;28;80207;-69
2020/12/30 03:31:30;;;;;;;1.80;0.40;;;3.90;59.00;;;;;;5006163;28;83502;-71
2020/12/30 03:33:56;;;;;;;1.88;1.00;;;3.90;59.10;;;;;;5026572;28;80088;-70
2020/12/30 03:36:23;;;;;;;0.95;0.20;;;3.90;59.40;;;;;;5026675;28;79949;-70
2020/12/30 03:38:49;;;;;;;1.20;0.30;;;3.90;59.40;;;;;;5026231;28;79752;-70
2020/12/30 03:41:14;;;;;;;2.00;0.20;;;3.90;59.30;;;;;;5007852;28;82987;-71
2020/12/30 03:43:40;;;;;;;2.38;0.20;;;3.90;59.40;;;;;;5007603;28;82840;-71
2020/12/30 03:46:06;;;;;;;1.77;0.20;;;3.80;59.40;;;;;;5026586;28;81206;-70
2020/12/30 03:48:32;;;;;;;2.83;0.30;;;3.90;59.40;;;;;;5026035;28;80084;-71
2020/12/30 03:50:58;;;;;;;1.77;0.50;;;3.80;59.80;;;;;;5025792;28;81789;-72
2020/12/30 03:53:23;;;;;;;10.20;0.82;;;3.80;59.70;;;;;;5027518;28;81605;-71
2020/12/30 03:55:49;;;;;;;2.60;0.30;;;3.80;59.70;;;;;;5011506;28;82384;-68
2020/12/30 03:58:15;;;;;;;1.17;0.20;;;3.80;59.70;;;;;;5029773;28;80238;-69
2020/12/30 04:00:40;;;;;;;2.65;0.70;;;3.80;59.70;;;;;;5029326;28;80555;-69
2020/12/30 04:03:06;;;;;;;1.17;0.17;;;3.80;59.70;;;;;;5011217;28;83454;-70
2020/12/30 04:05:32;;;;;;;2.38;0.30;;;3.80;59.70;;;;;;5029919;28;80589;-70
2020/12/30 04:07:58;;;;;;;1.67;0.30;;;3.80;59.80;;;;;;5011244;28;80824;-70
2020/12/30 04:10:23;;;;;;;0.85;0.20;;;3.70;59.90;;;;;;5029575;28;80700;-70
2020/12/30 04:12:49;;;;;;;1.30;0.75;;;3.70;60.00;;;;;;5029716;28;80202;-69
2020/12/30 04:15:15;;;;;;;1.63;0.30;;;3.70;60.00;;;;;;5029697;28;80513;-69
2020/12/30 04:17:41;;;;;;;2.75;0.55;;;3.70;59.90;;;;;;5029343;28;79963;-70
2020/12/30 04:20:06;;;;;;;0.73;0.17;;;3.70;59.90;;;;;;5029755;28;80062;-70
2020/12/30 04:22:32;;;;;;;1.27;0.20;;;3.70;59.90;;;;;;5011039;28;81563;-69
2020/12/30 04:24:58;;;;;;;2.03;0.22;;;3.70;59.80;;;;;;5011348;28;80560;-71
2020/12/30 04:27:24;;;;;;;2.88;0.10;;;3.70;59.80;;;;;;5010781;28;82038;-71
2020/12/30 04:29:49;;;;;;;1.67;0.10;;;3.70;59.80;;;;;;5010586;28;80993;-70
2020/12/30 04:32:15;;;;;;;2.75;0.20;;;3.70;59.90;;;;;;5010704;28;81426;-71
2020/12/30 04:34:41;;;;;;;5.07;0.82;;;3.70;60.00;;;;;;5010618;28;81015;-71
2020/12/30 04:37:06;;;;;;;2.38;0.45;;;3.70;60.10;;;;;;5011127;28;80064;-69
2020/12/30 04:39:32;;;;;;;3.03;0.20;;;3.70;60.20;;;;;;5029159;28;80557;-69
2020/12/30 04:42:01;;;;;;;1.48;0.20;;;3.70;60.20;;;;;;5029179;28;80247;-69
2020/12/30 04:44:33;;;;;;;1.65;0.17;;;3.70;60.30;;;;;;5029323;28;79747;-69
2020/12/30 04:47:03;;;;;;;1.88;0.20;;;3.70;60.30;;;;;;5029082;28;79632;-70
2020/12/30 04:49:30;;;;;;;1.92;0.17;;;3.70;60.20;;;;;;5029043;28;80589;-71
2020/12/30 04:51:56;;;;;;;3.00;0.57;;;3.70;60.20;;;;;;5010826;28;83706;-71
2020/12/30 04:54:23;;;;;;;0.98;0.22;;;3.70;60.30;;;;;;5028809;28;80824;-69
2020/12/30 04:56:58;;;;;;;2.38;0.10;;;3.70;60.30;;;;;;5029053;28;80230;-70
2020/12/30 04:59:39;;;;;;;3.25;0.60;;;3.70;60.30;;;;;;4989990;28;83446;-69
2020/12/30 05:02:10;;;;;;;4.97;1.35;;;3.70;60.40;;;;;;5008596;28;80512;-70
2020/12/30 05:04:37;;;;;;;2.03;0.45;;;3.70;60.60;;;;;;4990262;28;81076;-70
2020/12/30 05:07:11;;;;;;;3.10;0.73;;;3.70;60.70;;;;;;5008955;28;79825;-69
2020/12/30 05:09:42;;;;;;;2.65;0.30;;;3.60;61.00;;;;;;4990447;28;79865;-71
2020/12/30 05:12:18;;;;;;;2.80;0.30;;;3.60;61.00;;;;;;4990356;28;83079;-70
2020/12/30 05:14:44;;;;;;;1.20;0.25;;;3.70;61.10;;;;;;4990053;28;80977;-70
2020/12/30 05:17:11;;;;;;;1.27;0.20;;;3.60;61.10;;;;;;5008682;28;80029;-71
2020/12/30 05:19:37;;;;;;;7.95;1.27;;;3.60;61.20;;;;;;5008639;28;80610;-70
2020/12/30 05:22:04;;;;;;;0.85;0.25;;;3.50;61.20;;;;;;5008479;28;80270;-71
2020/12/30 05:24:31;;;;;;;1.67;0.20;;;3.50;61.40;;;;;;4990390;28;81169;-70
2020/12/30 05:27:00;;;;;;;2.53;0.65;;;3.50;61.50;;;;;;5008400;28;80421;-70
2020/12/30 05:29:27;;;;;;;7.53;1.75;;;3.50;61.50;;;;;;4990083;28;80757;-69
2020/12/30 05:31:54;;;;;;;3.58;0.63;;;3.40;61.60;;;;;;5007912;28;80026;-70
2020/12/30 05:34:21;;;;;;;3.97;1.10;;;3.40;61.80;;;;;;5008871;28;80580;-69
2020/12/30 05:36:47;;;;;;;1.90;0.32;;;3.40;61.80;;;;;;5007774;28;80405;-68
2020/12/30 05:39:20;;;;;;;5.80;1.25;;;3.40;61.70;;;;;;4989824;28;81944;-69
2020/12/30 05:41:46;;;;;;;2.90;0.68;;;3.40;61.80;;;;;;5008291;28;80062;-68
2020/12/30 05:44:19;;;;;;;2.95;0.50;;;3.40;61.80;;;;;;5008261;28;81275;-71
2020/12/30 05:46:45;;;;;;;1.40;0.30;;;3.40;61.80;;;;;;5008033;28;80570;-69
2020/12/30 05:49:28;;;;;;;2.00;0.45;;;3.40;61.70;;;;;;5008094;28;80830;-69
2020/12/30 05:51:56;;;;;;;5.25;1.15;;;3.40;61.70;;;;;;5008070;28;80420;-69
2020/12/30 05:54:22;;;;;;;2.55;0.57;;;3.30;61.80;;;;;;5007858;28;80583;-71
2020/12/30 05:56:48;;;;;;;2.35;0.65;;;3.30;61.90;;;;;;4989661;28;82210;-69
2020/12/30 05:59:17;;;;;;;2.10;0.68;;;3.30;61.90;;;;;;5026439;28;80647;-71
2020/12/30 06:01:45;;;;;;;1.45;0.38;;;3.30;62.10;;;;;;5027913;28;80419;-69
2020/12/30 06:04:16;;;;;;;1.20;0.20;;;3.30;61.90;;;;;;5027762;28;80504;-70
2020/12/30 06:06:46;;;;;;;1.10;0.40;;;3.30;61.90;;;;;;5009184;28;82371;-69
2020/12/30 06:09:19;;;;;;;3.53;0.30;;;3.30;61.90;;;;;;5027619;28;81019;-69
2020/12/30 06:11:54;;;;;;;2.75;0.25;;;3.40;62.00;;;;;;5009682;28;83855;-69
2020/12/30 06:14:21;;;;;;;3.38;0.57;;;3.40;62.00;;;;;;5009347;28;80796;-70
2020/12/30 06:16:48;;;;;;;2.97;0.73;;;3.30;62.00;;;;;;5008271;28;83130;-68
2020/12/30 06:19:14;;;;;;;5.55;0.80;;;3.20;62.10;;;;;;5027063;28;80527;-69
2020/12/30 06:21:44;;;;;;;1.77;0.60;;;3.30;62.10;;;;;;5027390;28;80326;-68
2020/12/30 06:24:14;;;;;;;1.60;0.30;;;3.30;62.30;;;;;;5027375;28;81124;-70
2020/12/30 06:26:41;;;;;;;2.67;0.70;;;3.20;62.40;;;;;;5027356;28;80023;-68
2020/12/30 06:29:15;;;;;;;2.42;0.68;;;3.20;62.40;;;;;;5027687;28;80611;-68
2020/12/30 06:31:45;;;;;;;1.95;0.32;;;3.20;62.40;;;;;;5008655;28;83559;-70
2020/12/30 06:34:11;;;;;;;5.70;0.70;;;3.20;62.50;;;;;;5027321;28;80877;-70
2020/12/30 06:36:37;;;;;;;3.67;1.23;;;3.20;62.50;;;;;;5026973;28;79839;-69
2020/12/30 06:39:17;;;;;;;5.15;0.85;;;3.10;62.50;;;;;;5004360;28;82759;-70
2020/12/30 06:41:59;;;;;;;3.05;0.65;;;3.20;62.60;;;;;;5012537;28;81609;-70
2020/12/30 06:44:38;;;;;;;4.50;0.88;;;3.20;62.60;;;;;;4993456;28;82105;-71
2020/12/30 06:47:05;;;;;;;2.65;0.60;;;3.10;62.70;;;;;;5007336;28;81483;-71
2020/12/30 06:49:31;;;;;;;6.80;1.20;;;3.10;62.80;;;;;;4992018;28;83008;-71
2020/12/30 06:51:56;;;;;;;5.28;1.00;;;3.00;62.90;;;;;;5006589;28;81427;-71
2020/12/30 06:54:42;;;;;;;6.55;1.10;;;3.00;63.10;;;;;;5008080;28;81185;-71
2020/12/30 06:57:08;;;;;;;4.45;1.20;;;3.00;63.10;;;;;;4991471;28;82218;-72
2020/12/30 06:59:35;;;;;;;11.77;4.32;;;3.00;63.10;;;;;;4990564;28;84612;-71
2020/12/30 07:02:07;;;;;;;3.45;0.90;;;2.90;63.10;;;;;;5007265;28;81667;-71
2020/12/30 07:04:36;;;;;;;3.10;1.20;;;3.00;63.10;;;;;;5006974;28;81464;-70
2020/12/30 07:07:20;;;;;;;5.22;0.95;;;2.90;63.00;;;;;;5006915;28;80672;-72
2020/12/30 07:09:45;;;;;;;3.60;1.05;;;3.00;62.90;;;;;;4990087;28;81477;-71
2020/12/30 07:12:11;;;;;;;2.28;0.60;;;3.00;62.80;;;;;;5007199;28;80887;-71
2020/12/30 07:14:37;;;;;;;8.15;0.88;;;3.10;62.70;;;;;;5007501;28;82109;-72
2020/12/30 07:17:07;;;;;;;2.53;0.60;;;3.10;62.50;;;;;;4990712;28;82321;-72
2020/12/30 07:19:35;;;;;;;2.75;0.80;;;3.20;62.40;;;;;;5006731;28;81223;-72
2020/12/30 07:22:14;;;;;;;5.93;1.77;;;3.10;62.20;;;;;;4990609;28;82781;-70
2020/12/30 07:24:52;;;;;;;5.18;1.92;;;3.20;62.00;;;;;;5006205;28;81073;-71
2020/12/30 07:27:18;;;;;;;8.13;1.80;;;3.20;61.80;;;;;;5006001;28;81334;-71
2020/12/30 07:29:46;;;;;;;7.78;2.22;;;3.30;61.70;;;;;;5006738;28;80692;-71
2020/12/30 07:32:14;;;;;;;4.65;1.73;;;3.30;61.60;;;;;;4988668;28;82024;-71
2020/12/30 07:34:46;;;;;;;6.70;1.65;;;3.30;61.70;;;;;;5004900;28;81152;-72
2020/12/30 07:37:13;;;;;;;5.68;1.85;;;3.30;61.70;;;;;;5006086;28;81261;-72
2020/12/30 07:39:44;;;;;;;5.07;0.70;;;3.30;61.80;;;;;;5006977;28;81616;-71
2020/12/30 07:42:14;;;;;;;3.15;0.98;;;3.30;61.90;;;;;;4991081;28;83011;-71
2020/12/30 07:44:48;;;;;;;6.78;1.17;;;3.20;62.00;;;;;;4989381;28;82636;-72
2020/12/30 07:47:14;;;;;;;3.45;0.75;;;3.30;62.20;;;;;;5005763;28;81378;-72
2020/12/30 07:49:40;;;;;;;2.80;0.82;;;3.30;62.30;;;;;;5005485;28;81540;-71
2020/12/30 07:52:07;;;;;;;4.57;1.10;;;3.40;62.20;;;;;;4988367;28;81559;-71
2020/12/30 07:54:33;;;;;;;5.97;1.92;;;3.40;62.00;;;;;;5005940;28;82573;-71
2020/12/30 07:57:03;;;;;;;4.50;1.83;;;3.50;61.90;;;;;;5005776;28;81140;-71
2020/12/30 07:59:29;;;;;;;8.80;2.20;;;3.50;62.00;;;;;;4970744;28;83532;-74
2020/12/30 08:02:02;;;;;;;7.40;2.40;;;3.60;61.90;;;;;;4962145;28;81883;-71
2020/12/30 08:04:32;;;;;;;8.57;2.22;;;3.60;61.80;;;;;;4986700;28;81806;-72
2020/12/30 08:06:59;;;;;;;3.05;1.35;;;3.70;61.70;;;;;;4968746;28;81395;-73
2020/12/30 08:09:29;;;;;;;7.30;1.65;;;3.70;61.60;;;;;;4987096;28;80850;-72
2020/12/30 08:11:58;;;;;;;9.77;3.72;;;3.80;61.30;;;;;;4985621;28;81644;-74
2020/12/30 08:14:26;;;;;;;16.38;5.93;;;3.80;61.30;;;;;;4967533;28;83750;-72
2020/12/30 08:16:55;;;;;;;24.50;9.32;;;3.80;61.30;;;;;;4986974;28;81462;-72
2020/12/30 08:19:33;;;;;;;19.92;7.63;;;3.90;61.10;;;;;;4967432;28;82729;-73
2020/12/30 08:22:16;;;;;;;21.67;9.00;;;4.00;61.10;;;;;;4988160;28;82110;-72
2020/12/30 08:24:46;;;;;;;32.22;11.95;;;4.10;61.00;;;;;;4968353;28;82002;-73
2020/12/30 08:27:16;;;;;;;33.05;12.60;;;4.20;60.60;;;;;;4984493;28;83825;-74
2020/12/30 08:29:47;;;;;;;25.27;7.85;;;4.30;60.50;;;;;;4964175;28;85078;-71
2020/12/30 08:32:16;;;;;;;20.58;7.35;;;4.40;60.30;;;;;;4969101;28;84148;-71
2020/12/30 08:34:54;;;;;;;44.92;8.48;;;4.50;60.00;;;;;;4987429;28;81232;-72
2020/12/30 08:37:26;;;;;;;12.07;3.95;;;4.60;59.70;;;;;;4985641;28;82350;-72
2020/12/30 08:40:12;;;;;;;28.15;3.67;;;4.60;59.50;;;;;;4965713;28;83805;-71
2020/12/30 08:42:53;;;;;;;12.18;2.65;;;4.80;59.10;;;;;;4990850;28;81389;-72
2020/12/30 08:45:29;;;;;;;6.13;1.77;;;4.90;59.10;;;;;;4989396;28;81057;-71
2020/12/30 08:47:56;;;;;;;6.50;1.40;;;4.90;59.10;;;;;;4987298;28;81546;-71
2020/12/30 08:50:25;;;;;;;5.18;0.95;;;5.00;59.00;;;;;;4987263;28;82550;-74
2020/12/30 08:52:52;;;;;;;7.35;1.00;;;5.00;58.50;;;;;;4989624;28;81843;-70
2020/12/30 08:55:19;;;;;;;2.53;1.00;;;5.10;58.20;;;;;;4970078;28;82806;-71
2020/12/30 08:57:49;;;;;;;6.22;1.42;;;5.10;57.70;;;;;;4974454;28;82348;-72
2020/12/30 09:00:44;;;;;;;3.17;0.82;;;5.20;57.60;;;;;;4990397;28;81366;-74
2020/12/30 09:03:12;;;;;;;4.45;0.90;;;5.40;57.30;;;;;;4990620;28;80608;-73
2020/12/30 09:05:39;;;;;;;7.03;1.90;;;5.40;56.90;;;;;;4975784;28;82164;-70
2020/12/30 09:08:20;;;;;;;8.90;1.70;;;5.60;56.80;;;;;;4975058;28;81524;-72
2020/12/30 09:10:49;;;;;;;7.95;1.90;;;5.90;56.00;;;;;;4975775;28;81890;-71
2020/12/30 09:13:24;;;;;;;8.00;2.78;;;5.90;55.40;;;;;;5010169;28;81121;-63
2020/12/30 09:15:54;;;;;;;4.50;1.48;;;6.10;55.20;;;;;;4990944;28;81932;-65
2020/12/30 09:18:22;;;;;;;4.20;1.52;;;6.20;55.00;;;;;;5006753;28;81203;-66
2020/12/30 09:20:48;;;;;;;7.72;2.03;;;6.40;54.60;;;;;;4992751;28;81221;-66
2020/12/30 09:23:14;;;;;;;4.18;1.58;;;6.50;54.50;;;;;;5009094;28;82240;-67
2020/12/30 09:25:41;;;;;;;5.57;1.95;;;7.00;54.00;;;;;;4990880;28;81518;-67
2020/12/30 09:28:34;;;;;;;4.28;1.50;;;7.40;53.00;;;;;;5009062;28;80967;-69
2020/12/30 09:31:05;;;;;;;4.00;0.80;;;8.10;51.30;;;;;;4990385;28;81891;-65
2020/12/30 09:33:33;;;;;;;6.68;1.27;;;8.50;49.40;;;;;;5010013;28;81594;-68
2020/12/30 09:36:06;;;;;;;2.97;0.75;;;8.50;49.00;;;;;;4991691;28;81872;-65
2020/12/30 09:38:32;;;;;;;4.95;1.50;;;8.40;48.60;;;;;;5009362;28;82502;-64
2020/12/30 09:40:57;;;;;;;5.72;1.20;;;8.20;49.00;;;;;;4991227;28;81567;-62
2020/12/30 09:43:25;;;;;;;3.42;1.35;;;7.90;49.60;;;;;;5009196;28;81394;-63
2020/12/30 09:46:01;;;;;;;4.30;1.63;;;8.10;49.30;;;;;;4990545;28;81516;-66
2020/12/30 09:48:28;;;;;;;6.57;1.10;;;8.70;48.10;;;;;;4990382;28;81238;-64
2020/12/30 09:50:54;;;;;;;4.05;1.10;;;9.70;45.90;;;;;;5007695;28;81485;-65
2020/12/30 09:53:20;;;;;;;5.40;0.80;;;10.50;44.00;;;;;;4991764;28;83213;-65
2020/12/30 09:55:48;;;;;;;2.75;0.82;;;10.80;43.00;;;;;;5008215;28;81440;-67
2020/12/30 09:58:14;;;;;;;2.65;1.17;;;10.70;42.40;;;;;;4990121;28;81552;-69
2020/12/30 10:00:40;;;;;;;2.55;0.68;;;10.90;41.70;;;;;;5009675;28;81105;-66
2020/12/30 10:03:06;;;;;;;6.95;1.60;;;10.50;42.10;;;;;;5008594;28;81232;-64
2020/12/30 10:05:32;;;;;;;3.92;0.85;;;10.30;42.70;;;;;;5007558;28;81123;-66
2020/12/30 10:07:58;;;;;;;2.50;1.23;;;10.60;42.20;;;;;;5009269;28;81245;-68
2020/12/30 10:10:24;;;;;;;4.85;1.00;;;11.20;41.60;;;;;;5009305;28;81832;-67
2020/12/30 10:12:50;;;;;;;3.78;1.30;;;12.40;39.60;;;;;;4990748;28;82456;-67
2020/12/30 10:15:19;;;;;;;4.22;0.80;;;13.10;37.90;;;;;;5009119;28;81304;-66
2020/12/30 10:17:45;;;;;;;2.85;0.77;;;13.60;37.00;;;;;;5008123;28;81464;-68
2020/12/30 10:20:12;;;;;;;6.28;0.95;;;14.00;36.40;;;;;;5007565;28;82097;-67
2020/12/30 10:22:39;;;;;;;5.07;1.00;;;13.90;36.50;;;;;;5009086;28;81355;-67
2020/12/30 10:25:06;;;;;;;4.95;0.90;;;13.60;37.00;;;;;;5008843;28;81759;-67
2020/12/30 10:27:32;;;;;;;1.70;0.68;;;14.10;36.00;;;;;;5009058;28;81340;-66
2020/12/30 10:29:58;;;;;;;5.57;0.68;;;15.50;33.70;;;;;;5008342;28;81281;-67
2020/12/30 10:32:24;;;;;;;4.72;0.45;;;16.70;31.80;;;;;;5008309;28;81214;-68
2020/12/30 10:34:50;;;;;;;3.88;1.17;;;16.70;31.20;;;;;;4991192;28;81512;-65
2020/12/30 10:37:18;;;;;;;3.40;0.52;;;16.50;31.70;;;;;;5008616;28;81644;-68
2020/12/30 10:39:46;;;;;;;4.15;0.82;;;17.20;30.30;;;;;;4990625;28;82315;-65
2020/12/30 10:42:13;;;;;;;2.80;0.70;;;17.50;30.20;;;;;;5008972;28;81349;-67
2020/12/30 10:44:39;;;;;;;3.28;0.55;;;18.90;28.80;;;;;;4990733;28;83435;-67
2020/12/30 10:47:04;;;;;;;5.45;0.88;;;20.40;27.20;;;;;;5007859;28;81066;-66
2020/12/30 10:49:30;;;;;;;3.83;1.10;;;21.40;25.60;;;;;;4990958;28;82526;-68
2020/12/30 10:51:56;;;;;;;5.47;0.70;;;20.90;25.90;;;;;;5009609;28;81132;-71
2020/12/30 10:54:21;;;;;;;2.53;0.60;;;18.80;27.70;;;;;;5009173;28;81680;-64
2020/12/30 10:56:48;;;;;;;1.52;0.65;;;17.60;29.20;;;;;;4990323;28;83239;-65
2020/12/30 10:59:18;;;;;;;2.13;0.50;;;17.90;29.00;;;;;;5007855;28;82086;-67
2020/12/30 11:01:44;;;;;;;1.65;0.43;;;19.10;27.80;;;;;;5010516;28;81279;-65
2020/12/30 11:04:10;;;;;;;1.02;0.35;;;20.60;25.80;;;;;;4989239;28;83116;-64
2020/12/30 11:06:39;;;;;;;5.43;0.90;;;20.60;25.30;;;;;;5008405;28;81471;-65
2020/12/30 11:09:06;;;;;;;1.73;0.50;;;21.20;25.00;;;;;;5007401;28;81613;-67
2020/12/30 11:11:32;;;;;;;2.28;0.40;;;22.00;24.30;;;;;;5005490;28;81737;-67
2020/12/30 11:13:58;;;;;;;1.92;0.57;;;22.40;23.40;;;;;;5006559;28;81433;-67
2020/12/30 11:16:24;;;;;;;2.50;0.88;;;21.90;24.20;;;;;;4988072;28;83366;-64
2020/12/30 11:18:50;;;;;;;1.58;0.40;;;21.50;24.60;;;;;;5006809;28;81211;-66
2020/12/30 11:21:16;;;;;;;2.30;0.80;;;21.70;24.20;;;;;;5010279;28;81423;-65
2020/12/30 11:23:42;;;;;;;5.32;1.00;;;21.60;24.20;;;;;;5008452;28;80900;-67
2020/12/30 11:26:07;;;;;;;2.25;0.82;;;20.50;25.30;;;;;;4990233;28;82172;-65
2020/12/30 11:28:33;;;;;;;2.58;0.63;;;21.20;25.00;;;;;;5009828;28;81432;-63
2020/12/30 11:30:59;;;;;;;2.33;0.30;;;22.50;23.70;;;;;;4993483;28;81557;-67
2020/12/30 11:33:25;;;;;;;2.53;0.40;;;22.70;23.40;;;;;;5008836;28;81170;-64
2020/12/30 11:35:51;;;;;;;3.50;0.88;;;22.20;23.20;;;;;;5009672;28;81841;-66
2020/12/30 11:38:16;;;;;;;2.35;0.30;;;22.40;23.20;;;;;;5006246;28;81889;-66
2020/12/30 11:40:42;;;;;;;1.67;0.93;;;23.00;22.60;;;;;;4992348;28;82261;-64
2020/12/30 11:43:08;;;;;;;2.15;0.70;;;24.10;22.00;;;;;;5010355;28;81064;-65
2020/12/30 11:45:34;;;;;;;2.33;0.43;;;24.70;21.20;;;;;;5008665;28;81359;-66
2020/12/30 11:48:01;;;;;;;2.17;0.40;;;23.90;21.70;;;;;;4995203;28;82351;-67
2020/12/30 11:50:29;;;;;;;0.90;0.25;;;23.40;22.30;;;;;;4994621;28;82983;-67
2020/12/30 11:52:56;;;;;;;2.63;0.40;;;23.00;22.40;;;;;;5009520;28;81176;-65
2020/12/30 11:55:22;;;;;;;2.95;0.50;;;23.00;22.20;;;;;;4991858;28;82301;-65
2020/12/30 11:57:48;;;;;;;1.48;0.40;;;22.60;22.50;;;;;;4988041;28;83398;-67
2020/12/30 12:00:13;;;;;;;2.13;0.30;;;23.50;22.00;;;;;;4977212;28;81848;-65
2020/12/30 12:02:39;;;;;;;1.88;0.85;;;24.70;21.00;;;;;;5006700;28;81395;-66
2020/12/30 12:05:11;;;;;;;10.30;6.07;;;25.80;20.20;;;;;;5012207;28;81182;-66
2020/12/30 12:07:37;;;;;;;7.07;2.15;;;26.50;19.50;;;;;;5011081;28;81351;-66
2020/12/30 12:10:07;;;;;;;6.88;2.55;;;27.00;19.10;;;;;;4993348;28;83270;-64
2020/12/30 12:12:34;;;;;;;2.15;1.05;;;25.30;20.10;;;;;;5008959;28;81251;-65
2020/12/30 12:14:59;;;;;;;4.13;1.15;;;23.10;21.60;;;;;;4990998;28;82945;-66
2020/12/30 12:17:25;;;;;;;1.85;0.60;;;23.60;21.50;;;;;;4993314;28;81233;-66
2020/12/30 12:19:51;;;;;;;2.38;0.57;;;25.00;20.70;;;;;;4992218;28;81489;-66
2020/12/30 12:22:17;;;;;;;4.35;0.70;;;26.70;19.60;;;;;;4995137;28;80873;-65
2020/12/30 12:24:43;;;;;;;2.50;0.65;;;27.50;18.90;;;;;;5010216;28;81667;-66
2020/12/30 12:27:08;;;;;;;4.25;0.93;;;27.80;18.80;;;;;;4992160;28;81442;-65
2020/12/30 12:29:34;;;;;;;5.28;0.90;;;28.40;18.40;;;;;;5012139;28;82542;-70
2020/12/30 12:32:08;;;;;;;2.03;0.50;;;28.70;18.20;;;;;;4996802;28;81347;-66
2020/12/30 12:34:36;;;;;;;6.85;1.17;;;28.80;18.00;;;;;;4995057;28;84006;-68
2020/12/30 12:37:03;;;;;;;7.10;1.45;;;28.00;18.50;;;;;;5010020;28;80908;-69
2020/12/30 12:39:29;;;;;;;3.20;1.27;;;28.00;18.70;;;;;;4997147;28;81489;-69
2020/12/30 12:41:56;;;;;;;4.38;0.93;;;28.60;18.30;;;;;;4999560;28;81271;-69
2020/12/30 12:44:23;;;;;;;2.30;0.70;;;28.60;18.10;;;;;;5009980;28;80780;-67
2020/12/30 12:46:50;;;;;;;4.13;0.65;;;28.80;18.20;;;;;;4996669;28;81580;-69
2020/12/30 12:49:16;;;;;;;7.10;2.70;;;28.40;18.50;;;;;;5012201;28;81685;-65
2020/12/30 12:51:46;;;;;;;1.70;0.70;;;27.70;18.90;;;;;;4995256;28;81160;-67
2020/12/30 12:54:12;;;;;;;6.68;0.82;;;26.60;19.50;;;;;;4997242;28;80661;-69
2020/12/30 12:56:38;;;;;;;2.67;0.68;;;25.60;20.20;;;;;;4994613;28;82621;-69